createdAt,value
2018-09-21T00:00:39.576Z,20.51
2018-09-21T00:03:08.677Z,20.48
2018-09-21T00:05:36.708Z,20.62
2018-09-21T00:08:04.904Z,20.77
2018-09-21T00:10:32.906Z,20.71
2018-09-21T00:13:00.914Z,20.69
2018-09-21T00:15:29.125Z,20.72
2018-09-21T00:17:57.375Z,20.79
2018-09-21T00:20:25.352Z,20.80
2018-09-21T00:22:53.449Z,20.87
2018-09-21T00:25:21.627Z,20.64
2018-09-21T00:27:49.656Z,20.59
2018-09-21T00:30:17.719Z,20.58
2018-09-21T00:32:45.758Z,20.51
2018-09-21T00:35:13.756Z,20.62
2018-09-21T00:37:42.349Z,20.68
2018-09-21T00:40:10.352Z,20.66
2018-09-21T00:42:38.349Z,20.58
2018-09-21T00:45:06.422Z,20.45
2018-09-21T00:47:34.463Z,20.44
2018-09-21T00:50:02.469Z,20.34
2018-09-21T00:52:30.480Z,20.35
2018-09-21T00:54:58.501Z,20.39
2018-09-21T00:57:26.532Z,20.40
2018-09-21T00:59:54.568Z,20.10
2018-09-21T01:02:22.572Z,20.09
2018-09-21T01:04:50.591Z,20.04
2018-09-21T01:07:18.618Z,20.08
2018-09-21T01:09:46.616Z,19.94
2018-09-21T01:12:14.658Z,19.75
2018-09-21T01:14:42.708Z,19.66
2018-09-21T01:17:10.738Z,19.48
2018-09-21T01:19:38.778Z,19.43
2018-09-21T01:22:06.822Z,19.45
2018-09-21T01:24:34.815Z,19.44
2018-09-21T01:27:02.809Z,19.22
2018-09-21T01:29:30.845Z,19.05
2018-09-21T01:31:58.862Z,18.92
2018-09-21T01:34:26.882Z,19.00
2018-09-21T01:36:54.942Z,19.05
2018-09-21T01:39:22.956Z,18.99
2018-09-21T01:41:50.973Z,18.97
2018-09-21T01:44:19.085Z,18.77
2018-09-21T01:46:47.097Z,18.86
2018-09-21T01:49:15.184Z,18.83
2018-09-21T01:51:43.373Z,18.88
2018-09-21T01:54:11.388Z,18.91
2018-09-21T01:56:39.415Z,18.89
2018-09-21T01:59:07.521Z,18.87
2018-09-21T02:01:35.535Z,18.88
2018-09-21T02:04:03.588Z,19.01
2018-09-21T02:06:31.665Z,18.96
2018-09-21T02:08:59.688Z,19.10
2018-09-21T02:11:27.684Z,19.00
2018-09-21T02:13:55.795Z,18.89
2018-09-21T02:16:23.813Z,18.98
2018-09-21T02:18:51.864Z,19.01
2018-09-21T02:21:19.865Z,18.99
2018-09-21T02:23:47.952Z,19.00
2018-09-21T02:26:15.945Z,18.94
2018-09-21T02:28:43.987Z,18.99
2018-09-21T02:31:11.977Z,19.08
2018-09-21T02:33:39.992Z,19.02
2018-09-21T02:36:08.045Z,19.10
2018-09-21T02:38:36.065Z,19.15
2018-09-21T02:41:04.072Z,19.17
2018-09-21T02:43:32.135Z,19.12
2018-09-21T02:46:00.157Z,19.13
2018-09-21T02:48:28.162Z,19.03
2018-09-21T02:50:56.203Z,19.03
2018-09-21T02:53:25.242Z,19.11
2018-09-21T02:55:53.234Z,19.09
2018-09-21T02:58:21.229Z,19.16
2018-09-21T03:00:49.379Z,19.07
2018-09-21T03:03:17.252Z,19.08
2018-09-21T03:05:45.323Z,19.02
2018-09-21T03:08:13.312Z,18.99
2018-09-21T03:10:41.360Z,19.05
2018-09-21T03:13:09.452Z,19.03
2018-09-21T03:15:37.441Z,18.92
2018-09-21T03:18:05.493Z,18.89
2018-09-21T03:20:33.499Z,19.07
2018-09-21T03:23:01.501Z,19.01
2018-09-21T03:25:29.581Z,19.07
2018-09-21T03:27:57.613Z,19.06
2018-09-21T03:30:25.604Z,19.02
2018-09-21T03:32:53.593Z,19.05
2018-09-21T03:35:21.723Z,19.19
2018-09-21T03:37:49.687Z,19.12
2018-09-21T03:40:17.697Z,19.14
2018-09-21T03:42:45.748Z,19.13
2018-09-21T03:45:13.771Z,19.15
2018-09-21T03:47:41.856Z,19.13
2018-09-21T03:50:09.869Z,19.09
2018-09-21T03:52:37.900Z,19.13
2018-09-21T03:55:06.480Z,19.15
2018-09-21T03:57:34.568Z,19.14
2018-09-21T04:00:02.580Z,19.20
2018-09-21T04:02:30.630Z,19.19
2018-09-21T04:04:58.649Z,19.11
2018-09-21T04:07:26.647Z,19.11
2018-09-21T04:09:54.665Z,19.11
2018-09-21T04:12:22.730Z,19.17
2018-09-21T04:14:50.779Z,19.13
2018-09-21T04:17:18.764Z,19.19
2018-09-21T04:19:46.791Z,19.26
2018-09-21T04:22:14.812Z,19.31
2018-09-21T04:24:42.819Z,19.31
2018-09-21T04:27:10.817Z,19.44
2018-09-21T04:29:38.845Z,19.44
2018-09-21T04:32:06.881Z,19.43
2018-09-21T04:34:35.043Z,19.43
2018-09-21T04:37:03.041Z,19.53
2018-09-21T04:39:31.109Z,19.49
2018-09-21T04:41:59.131Z,19.52
2018-09-21T04:44:27.137Z,19.61
2018-09-21T04:46:55.208Z,19.66
2018-09-21T04:49:23.220Z,19.72
2018-09-21T04:51:51.244Z,19.75
2018-09-21T04:54:19.260Z,19.71
2018-09-21T04:56:47.276Z,19.77
2018-09-21T04:59:15.377Z,19.74
2018-09-21T05:01:43.404Z,19.72
2018-09-21T05:04:11.413Z,19.70
2018-09-21T05:06:39.412Z,19.73
2018-09-21T05:09:09.580Z,19.85
2018-09-21T05:11:37.597Z,19.79
2018-09-21T05:14:05.666Z,19.81
2018-09-21T05:16:33.693Z,19.74
2018-09-21T05:19:01.713Z,19.71
2018-09-21T05:21:29.705Z,19.77
2018-09-21T05:23:57.717Z,19.68
2018-09-21T05:26:25.776Z,19.75
2018-09-21T05:28:53.846Z,19.78
2018-09-21T05:31:22.919Z,19.81
2018-09-21T05:33:50.940Z,19.89
2018-09-21T05:36:19.019Z,20.03
2018-09-21T05:38:47.224Z,20.05
2018-09-21T05:41:15.425Z,20.12
2018-09-21T05:43:43.433Z,20.20
2018-09-21T05:46:11.445Z,20.54
2018-09-21T05:48:39.623Z,20.95
2018-09-21T05:51:07.705Z,21.28
2018-09-21T05:53:35.789Z,21.47
2018-09-21T05:56:03.868Z,21.77
2018-09-21T05:58:31.801Z,22.26
2018-09-21T06:00:59.833Z,22.57
2018-09-21T06:03:29.088Z,22.81
2018-09-21T06:05:57.129Z,23.05
2018-09-21T06:08:25.161Z,23.38
2018-09-21T06:10:53.251Z,23.40
2018-09-21T06:13:21.356Z,23.60
2018-09-21T06:15:49.420Z,23.84
2018-09-21T06:18:18.069Z,23.82
2018-09-21T06:20:46.101Z,23.51
2018-09-21T06:23:14.142Z,23.42
2018-09-21T06:25:42.209Z,23.27
2018-09-21T06:28:10.261Z,23.17
2018-09-21T06:30:38.264Z,23.42
2018-09-21T06:33:06.297Z,23.72
2018-09-21T06:35:35.374Z,23.80
2018-09-21T06:38:03.399Z,23.74
2018-09-21T06:40:31.433Z,23.80
2018-09-21T06:42:59.645Z,23.71
2018-09-21T06:45:27.716Z,23.92
2018-09-21T06:47:55.712Z,23.80
2018-09-21T06:50:23.709Z,23.85
2018-09-21T06:52:51.967Z,23.85
2018-09-21T06:55:20.094Z,24.02
2018-09-21T06:57:49.132Z,24.51
2018-09-21T07:00:17.323Z,24.66
2018-09-21T07:02:45.347Z,24.63
2018-09-21T07:05:14.594Z,24.58
2018-09-21T07:07:42.967Z,24.48
2018-09-21T07:10:11.521Z,24.47
2018-09-21T07:12:39.649Z,24.34
2018-09-21T07:15:08.047Z,24.23
2018-09-21T07:17:36.113Z,23.83
2018-09-21T07:20:04.477Z,23.83
2018-09-21T07:22:32.565Z,23.75
2018-09-21T07:25:00.731Z,23.78
2018-09-21T07:27:28.899Z,23.67
2018-09-21T07:29:58.020Z,23.67
2018-09-21T07:32:26.229Z,23.78
2018-09-21T07:34:54.879Z,23.92
2018-09-21T07:37:22.926Z,23.96
2018-09-21T07:39:50.916Z,24.03
2018-09-21T07:42:18.947Z,24.10
2018-09-21T07:44:46.933Z,24.31
2018-09-21T07:47:14.953Z,24.53
2018-09-21T07:49:43.101Z,25.12
2018-09-21T07:52:11.244Z,25.93
2018-09-21T07:54:39.251Z,26.97
2018-09-21T07:57:07.344Z,27.67
2018-09-21T07:59:35.373Z,27.98
2018-09-21T08:02:03.380Z,27.84
2018-09-21T08:04:31.417Z,27.78
2018-09-21T08:06:59.593Z,27.92
2018-09-21T08:09:27.640Z,27.86
2018-09-21T08:11:55.700Z,27.47
2018-09-21T08:14:23.781Z,27.61
2018-09-21T08:16:51.813Z,28.15
2018-09-21T08:19:19.865Z,28.15
2018-09-21T08:21:47.865Z,27.62
2018-09-21T08:24:16.072Z,27.45
2018-09-21T08:26:44.232Z,27.20
2018-09-21T08:29:12.337Z,27.13
2018-09-21T08:31:40.385Z,26.80
2018-09-21T08:34:08.394Z,26.66
2018-09-21T08:36:36.425Z,26.51
2018-09-21T08:39:06.990Z,26.17
2018-09-21T08:41:35.017Z,25.96
2018-09-21T08:44:03.162Z,25.93
2018-09-21T08:46:31.164Z,25.70
2018-09-21T08:48:59.184Z,25.69
2018-09-21T08:51:27.201Z,25.61
2018-09-21T08:53:55.217Z,25.56
2018-09-21T08:56:23.241Z,25.50
2018-09-21T08:58:51.287Z,25.48
2018-09-21T09:01:19.284Z,25.42
2018-09-21T09:03:47.425Z,25.40
2018-09-21T09:06:15.489Z,25.32
2018-09-21T09:08:43.545Z,25.35
2018-09-21T09:11:11.617Z,25.47
2018-09-21T09:13:39.769Z,25.44
2018-09-21T09:16:07.805Z,25.32
2018-09-21T09:18:35.853Z,25.38
2018-09-21T09:21:03.841Z,25.32
2018-09-21T09:23:31.865Z,25.16
2018-09-21T09:25:59.917Z,25.10
2018-09-21T09:28:27.972Z,25.07
2018-09-21T09:30:55.990Z,25.12
2018-09-21T09:33:24.010Z,25.11
2018-09-21T09:35:52.037Z,24.94
2018-09-21T09:38:20.082Z,24.99
2018-09-21T09:40:48.277Z,25.17
2018-09-21T09:43:16.353Z,25.39
2018-09-21T09:45:44.401Z,25.38
2018-09-21T09:48:12.523Z,25.44
2018-09-21T09:50:40.529Z,25.44
2018-09-21T09:53:08.731Z,25.30
2018-09-21T09:55:36.749Z,25.23
2018-09-21T09:58:04.788Z,25.30
2018-09-21T10:00:35.845Z,25.23
2018-09-21T10:03:03.905Z,25.31
2018-09-21T10:05:32.964Z,25.26
2018-09-21T10:08:01.043Z,25.20
2018-09-21T10:10:29.153Z,25.31
2018-09-21T10:12:57.174Z,25.30
2018-09-21T10:15:25.193Z,25.36
2018-09-21T10:17:53.200Z,25.28
2018-09-21T10:20:21.193Z,25.23
2018-09-21T10:22:49.584Z,24.84
2018-09-21T10:25:17.578Z,24.64
2018-09-21T10:27:45.872Z,24.35
2018-09-21T10:30:13.726Z,23.79
2018-09-21T10:32:41.795Z,23.48
2018-09-21T10:35:10.021Z,23.13
2018-09-21T10:37:38.024Z,22.62
2018-09-21T10:40:06.205Z,22.31
2018-09-21T10:42:34.328Z,22.12
2018-09-21T10:45:02.309Z,21.65
2018-09-21T10:47:30.320Z,20.80
2018-09-21T10:49:58.366Z,19.64
2018-09-21T10:52:26.357Z,18.85
2018-09-21T10:54:54.441Z,18.53
2018-09-21T10:57:22.477Z,18.43
2018-09-21T10:59:50.489Z,18.29
2018-09-21T11:02:18.529Z,18.27
2018-09-21T11:04:46.540Z,18.25
2018-09-21T11:07:14.642Z,18.04
2018-09-21T11:09:42.713Z,17.86
2018-09-21T11:12:10.719Z,17.95
2018-09-21T11:14:38.756Z,17.74
2018-09-21T11:17:06.948Z,17.67
2018-09-21T11:19:35.072Z,17.21
2018-09-21T11:22:03.077Z,17.00
2018-09-21T11:24:31.105Z,17.02
2018-09-21T11:26:59.137Z,17.05
2018-09-21T11:29:27.214Z,16.78
2018-09-21T11:31:55.201Z,16.71
2018-09-21T11:34:23.237Z,16.80
2018-09-21T11:36:51.256Z,16.76
2018-09-21T11:39:19.273Z,16.63
2018-09-21T11:41:47.296Z,16.90
2018-09-21T11:44:15.317Z,16.90
2018-09-21T11:46:43.355Z,17.09
2018-09-21T11:49:11.345Z,17.04
2018-09-21T11:51:39.357Z,17.05
2018-09-21T11:54:07.379Z,17.33
2018-09-21T11:56:35.377Z,17.47
2018-09-21T11:59:03.412Z,17.38
2018-09-21T12:01:31.417Z,17.20
2018-09-21T12:03:59.449Z,17.22
2018-09-21T12:06:27.500Z,17.02
2018-09-21T12:08:55.521Z,16.90
2018-09-21T12:11:23.575Z,16.83
2018-09-21T12:13:51.599Z,16.71
2018-09-21T12:16:19.605Z,16.63
2018-09-21T12:18:47.600Z,16.43
2018-09-21T12:21:15.593Z,16.49
2018-09-21T12:23:43.597Z,16.34
2018-09-21T12:26:11.602Z,16.59
2018-09-21T12:28:39.609Z,16.60
2018-09-21T12:31:07.776Z,16.72
2018-09-21T12:33:36.073Z,16.68
2018-09-21T12:36:04.566Z,16.65
2018-09-21T12:38:32.686Z,16.52
2018-09-21T12:41:00.656Z,16.60
2018-09-21T12:43:28.669Z,16.60
2018-09-21T12:45:56.694Z,16.66
2018-09-21T12:48:24.668Z,16.82
2018-09-21T12:50:52.748Z,16.91
2018-09-21T12:53:20.721Z,16.83
2018-09-21T12:55:48.782Z,16.95
2018-09-21T12:58:16.864Z,17.04
2018-09-21T13:00:50.772Z,17.24
2018-09-21T13:03:18.897Z,17.34
2018-09-21T13:05:46.949Z,17.32
2018-09-21T13:08:15.012Z,17.31
2018-09-21T13:10:43.073Z,17.24
2018-09-21T13:13:11.110Z,17.19
2018-09-21T13:15:39.153Z,17.23
2018-09-21T13:18:08.096Z,17.14
2018-09-21T13:20:36.320Z,17.24
2018-09-21T13:23:04.396Z,17.27
2018-09-21T13:25:32.534Z,17.32
2018-09-21T13:28:00.557Z,17.08
2018-09-21T13:30:28.598Z,16.53
2018-09-21T13:32:56.581Z,16.22
2018-09-21T13:35:25.379Z,16.31
2018-09-21T13:37:53.433Z,16.18
2018-09-21T13:40:21.510Z,16.11
2018-09-21T13:42:49.512Z,16.19
2018-09-21T13:45:17.593Z,16.46
2018-09-21T13:47:45.577Z,16.39
2018-09-21T13:50:13.581Z,16.45
2018-09-21T13:52:41.629Z,16.48
2018-09-21T13:55:09.665Z,16.74
2018-09-21T13:57:37.676Z,16.91
2018-09-21T14:00:06.136Z,16.84
2018-09-21T14:02:34.173Z,16.76
2018-09-21T14:05:02.176Z,16.42
2018-09-21T14:07:30.194Z,16.58
2018-09-21T14:09:58.208Z,16.34
2018-09-21T14:12:26.184Z,16.51
2018-09-21T14:14:54.374Z,16.42
2018-09-21T14:17:22.373Z,16.30
2018-09-21T14:19:50.392Z,16.12
2018-09-21T14:22:18.385Z,16.26
2018-09-21T14:24:46.370Z,16.25
2018-09-21T14:27:14.492Z,16.32
2018-09-21T14:29:42.691Z,16.43
2018-09-21T14:32:10.968Z,16.40
2018-09-21T14:34:38.976Z,16.48
2018-09-21T14:37:07.204Z,16.35
2018-09-21T14:39:35.234Z,16.27
2018-09-21T14:42:03.254Z,16.35
2018-09-21T14:44:31.272Z,16.41
2018-09-21T14:46:59.344Z,16.58
2018-09-21T14:49:27.384Z,16.40
2018-09-21T14:51:55.403Z,16.22
2018-09-21T14:54:23.404Z,16.26
2018-09-21T14:56:51.429Z,16.19
2018-09-21T14:59:19.444Z,16.13
2018-09-21T15:01:47.458Z,16.24
2018-09-21T15:04:15.542Z,16.29
2018-09-21T15:06:43.561Z,16.28
2018-09-21T15:09:11.997Z,16.27
2018-09-21T15:11:40.797Z,16.28
2018-09-21T15:14:09.075Z,16.57
2018-09-21T15:16:37.529Z,16.64
2018-09-21T15:19:05.445Z,16.68
2018-09-21T15:21:33.628Z,16.81
2018-09-21T15:24:01.643Z,17.00
2018-09-21T15:26:29.668Z,17.07
2018-09-21T15:28:57.700Z,17.13
2018-09-21T15:31:25.758Z,17.19
2018-09-21T15:33:53.777Z,17.27
2018-09-21T15:36:22.057Z,17.21
2018-09-21T15:38:50.229Z,17.23
2018-09-21T15:41:18.306Z,17.07
2018-09-21T15:43:46.578Z,17.06
2018-09-21T15:46:14.586Z,17.03
2018-09-21T15:48:42.766Z,17.07
2018-09-21T15:51:10.771Z,17.19
2018-09-21T15:53:38.785Z,17.27
2018-09-21T15:56:06.810Z,17.21
2018-09-21T15:58:34.845Z,17.13
2018-09-21T16:01:02.922Z,16.82
2018-09-21T16:03:30.925Z,16.79
2018-09-21T16:05:58.953Z,16.61
2018-09-21T16:08:26.961Z,16.44
2018-09-21T16:10:55.005Z,16.32
2018-09-21T16:13:23.018Z,16.46
2018-09-21T16:15:51.024Z,16.52
2018-09-21T16:18:19.036Z,16.43
2018-09-21T16:20:47.029Z,16.26
2018-09-21T16:23:15.041Z,16.37
2018-09-21T16:25:43.190Z,16.32
2018-09-21T16:28:11.184Z,16.12
2018-09-21T16:30:39.187Z,16.30
2018-09-21T16:33:07.205Z,16.30
2018-09-21T16:35:35.217Z,16.28
2018-09-21T16:38:03.359Z,16.11
2018-09-21T16:40:31.418Z,16.14
2018-09-21T16:42:59.422Z,16.02
2018-09-21T16:45:27.433Z,15.84
2018-09-21T16:47:55.626Z,15.85
2018-09-21T16:50:23.730Z,15.56
2018-09-21T16:52:51.773Z,15.56
2018-09-21T16:55:19.847Z,15.56
2018-09-21T16:57:47.849Z,15.50
2018-09-21T17:00:15.852Z,15.48
2018-09-21T17:02:43.872Z,15.50
2018-09-21T17:05:11.912Z,15.31
2018-09-21T17:07:39.897Z,15.29
2018-09-21T17:10:07.933Z,15.17
2018-09-21T17:12:35.974Z,15.17
2018-09-21T17:15:03.972Z,15.00
2018-09-21T17:17:31.994Z,14.91
2018-09-21T17:20:00.010Z,14.95
2018-09-21T17:22:28.035Z,14.85
2018-09-21T17:24:56.021Z,14.76
2018-09-21T17:27:24.017Z,14.64
2018-09-21T17:29:52.001Z,14.62
2018-09-21T17:32:20.165Z,14.65
2018-09-21T17:34:48.236Z,14.71
2018-09-21T17:37:16.393Z,14.69
2018-09-21T17:39:44.429Z,14.69
2018-09-21T17:42:12.456Z,14.55
2018-09-21T17:44:40.472Z,14.60
2018-09-21T17:47:08.489Z,14.51
2018-09-21T17:49:36.496Z,14.66
2018-09-21T17:52:04.617Z,14.78
2018-09-21T17:54:32.672Z,14.71
2018-09-21T17:57:00.798Z,14.71
2018-09-21T17:59:28.828Z,14.85
2018-09-21T18:01:56.843Z,14.77
2018-09-21T18:04:24.838Z,14.69
2018-09-21T18:06:52.873Z,14.76
2018-09-21T18:09:20.888Z,14.82
2018-09-21T18:11:48.898Z,14.87
2018-09-21T18:14:16.908Z,14.90
2018-09-21T18:16:44.913Z,14.99
2018-09-21T18:19:12.939Z,15.01
2018-09-21T18:21:40.908Z,14.91
2018-09-21T18:24:09.056Z,14.85
2018-09-21T18:26:37.268Z,14.98
2018-09-21T18:29:05.782Z,14.93
2018-09-21T18:31:33.838Z,14.81
2018-09-21T18:34:01.836Z,14.88
2018-09-21T18:36:29.883Z,14.55
2018-09-21T18:38:58.076Z,14.45
2018-09-21T18:41:26.070Z,14.49
2018-09-21T18:43:54.185Z,14.49
2018-09-21T18:46:22.141Z,14.54
2018-09-21T18:48:50.169Z,14.52
2018-09-21T18:51:18.174Z,14.45
2018-09-21T18:53:46.194Z,14.48
2018-09-21T18:56:14.211Z,14.49
2018-09-21T18:58:42.229Z,14.43
2018-09-21T19:01:10.258Z,14.42
2018-09-21T19:03:38.295Z,14.45
2018-09-21T19:06:06.433Z,14.33
2018-09-21T19:08:34.448Z,14.24
2018-09-21T19:11:02.565Z,13.97
2018-09-21T19:13:30.536Z,13.31
2018-09-21T19:15:58.537Z,12.16
2018-09-21T19:18:26.553Z,11.41
2018-09-21T19:20:54.566Z,11.08
2018-09-21T19:23:22.578Z,10.86
2018-09-21T19:25:50.661Z,10.67
2018-09-21T19:28:18.660Z,10.56
2018-09-21T19:30:46.692Z,10.70
2018-09-21T19:33:14.704Z,10.54
2018-09-21T19:35:42.739Z,10.67
2018-09-21T19:38:10.749Z,10.69
2018-09-21T19:40:38.801Z,10.75
2018-09-21T19:43:07.171Z,10.74
2018-09-21T19:45:35.122Z,10.85
2018-09-21T19:48:03.190Z,10.75
2018-09-21T19:50:31.207Z,10.82
2018-09-21T19:52:59.291Z,10.72
2018-09-21T19:55:27.259Z,10.63
2018-09-21T19:57:55.281Z,10.72
2018-09-21T20:00:23.317Z,10.55
2018-09-21T20:02:51.362Z,10.60
2018-09-21T20:05:19.393Z,10.60
2018-09-21T20:07:47.414Z,10.64
2018-09-21T20:10:15.456Z,10.63
2018-09-21T20:12:43.706Z,10.42
2018-09-21T20:15:11.724Z,10.59
2018-09-21T20:17:39.728Z,10.57
2018-09-21T20:20:07.738Z,10.68
2018-09-21T20:22:35.745Z,10.51
2018-09-21T20:25:03.747Z,10.72
2018-09-21T20:27:31.734Z,10.80
2018-09-21T20:30:05.144Z,10.83
2018-09-21T20:32:38.517Z,10.85
2018-09-21T20:35:06.518Z,10.93
2018-09-21T20:37:34.554Z,11.05
2018-09-21T20:40:02.740Z,10.93
2018-09-21T20:42:30.797Z,10.92
2018-09-21T20:44:58.805Z,10.82
2018-09-21T20:47:26.827Z,10.80
2018-09-21T20:49:54.828Z,10.83
2018-09-21T20:52:23.211Z,10.81
2018-09-21T20:54:51.345Z,10.80
2018-09-21T20:57:19.350Z,10.71
2018-09-21T20:59:47.451Z,10.62
2018-09-21T21:02:15.490Z,10.65
2018-09-21T21:04:43.568Z,10.66
2018-09-21T21:07:11.554Z,10.64
2018-09-21T21:09:39.588Z,10.69
2018-09-21T21:12:07.709Z,10.62
2018-09-21T21:14:35.748Z,10.63
2018-09-21T21:19:26.808Z,10.79
2018-09-21T21:21:55.165Z,10.84
2018-09-21T21:24:23.229Z,10.87
2018-09-21T21:26:51.408Z,10.75
2018-09-21T21:29:19.436Z,10.88
2018-09-21T21:31:47.982Z,10.88
2018-09-21T21:34:16.120Z,10.94
2018-09-21T21:36:44.178Z,10.92
2018-09-21T21:39:12.181Z,10.90
2018-09-21T21:41:42.201Z,10.99
2018-09-21T21:44:10.445Z,11.06
2018-09-21T21:46:38.529Z,11.02
2018-09-21T21:49:06.629Z,10.98
2018-09-21T21:51:34.713Z,10.95
2018-09-21T21:54:02.933Z,11.10
2018-09-21T21:56:30.947Z,10.92
2018-09-21T21:58:59.467Z,10.94
2018-09-21T22:01:33.006Z,10.96
2018-09-21T22:04:01.083Z,10.91
2018-09-21T22:06:29.090Z,10.98
2018-09-21T22:08:57.079Z,11.21
2018-09-21T22:11:30.593Z,11.14
2018-09-21T22:14:05.052Z,11.18
2018-09-21T22:16:33.073Z,11.15
2018-09-21T22:19:01.114Z,11.18
2018-09-21T22:21:29.333Z,11.12
2018-09-21T22:23:57.508Z,11.16
2018-09-21T22:26:25.621Z,11.22
2018-09-21T22:28:53.658Z,11.33
2018-09-21T22:31:21.656Z,11.28
2018-09-21T22:33:49.660Z,11.23
2018-09-21T22:36:17.776Z,11.20
2018-09-21T22:38:45.886Z,11.23
2018-09-21T22:41:13.893Z,11.37
2018-09-21T22:43:41.961Z,11.40
2018-09-21T22:46:09.981Z,11.33
2018-09-21T22:48:38.045Z,11.42
2018-09-21T22:51:06.050Z,11.32
2018-09-21T22:53:34.074Z,11.29
2018-09-21T22:56:02.081Z,11.23
2018-09-21T22:58:30.084Z,11.13
2018-09-21T23:00:58.189Z,11.07
2018-09-21T23:03:26.181Z,11.06
2018-09-21T23:05:54.209Z,10.93
2018-09-21T23:08:22.235Z,10.97
2018-09-21T23:10:50.257Z,10.98
2018-09-21T23:13:18.356Z,11.04
2018-09-21T23:15:46.357Z,11.12
2018-09-21T23:18:14.381Z,11.10
2018-09-21T23:20:42.378Z,11.02
2018-09-21T23:23:10.398Z,10.96
2018-09-21T23:25:38.472Z,11.05
2018-09-21T23:28:06.485Z,10.85
2018-09-21T23:30:34.507Z,10.89
2018-09-21T23:33:02.592Z,10.95
2018-09-21T23:35:30.607Z,10.96
2018-09-21T23:37:58.890Z,10.94
2018-09-21T23:40:26.942Z,10.88
2018-09-21T23:42:54.992Z,10.90
2018-09-21T23:45:23.000Z,10.81
2018-09-21T23:47:51.025Z,10.70
2018-09-21T23:50:19.253Z,10.74
2018-09-21T23:52:47.272Z,10.66
2018-09-21T23:55:15.299Z,10.70
2018-09-21T23:57:43.323Z,10.74
